sensor_id;sensor_type;location;lat;lon;timestamp;pressure;altitude;pressure_sealevel;temperature;humidity
15050;BME280;7622;42.724;23.250;2023-01-23T00:01:16;95054.28;;;9.18;100.00
15050;BME280;7622;42.724;23.250;2023-01-23T00:03:44;95065.25;;;9.11;100.00
15050;BME280;7622;42.724;23.250;2023-01-23T00:06:13;95062.59;;;9.01;100.00
15050;BME280;7622;42.724;23.250;2023-01-23T00:08:42;95065.78;;;8.93;100.00
15050;BME280;7622;42.724;23.250;2023-01-23T00:11:14;95076.16;;;8.93;100.00
15050;BME280;7622;42.724;23.250;2023-01-23T00:13:42;95086.19;;;8.87;100.00
15050;BME280;7622;42.724;23.250;2023-01-23T00:16:10;95085.34;;;8.86;100.00
15050;BME280;7622;42.724;23.250;2023-01-23T00:18:38;95081.94;;;8.86;100.00
15050;BME280;7622;42.724;23.250;2023-01-23T00:21:06;95090.31;;;8.89;100.00
15050;BME280;7622;42.724;23.250;2023-01-23T00:23:33;95074.38;;;8.94;100.00
15050;BME280;7622;42.724;23.250;2023-01-23T00:26:03;95072.63;;;8.94;100.00
15050;BME280;7622;42.724;23.250;2023-01-23T00:28:30;95074.47;;;9.03;100.00
15050;BME280;7622;42.724;23.250;2023-01-23T00:31:04;95074.59;;;9.02;100.00
15050;BME280;7622;42.724;23.250;2023-01-23T00:33:31;95075.41;;;9.02;100.00
15050;BME280;7622;42.724;23.250;2023-01-23T00:35:58;95078.72;;;9.04;100.00
15050;BME280;7622;42.724;23.250;2023-01-23T00:38:25;95082.81;;;9.07;100.00
15050;BME280;7622;42.724;23.250;2023-01-23T00:40:52;95089.66;;;9.08;100.00
15050;BME280;7622;42.724;23.250;2023-01-23T00:43:22;95097.06;;;9.13;100.00
15050;BME280;7622;42.724;23.250;2023-01-23T00:45:49;95090.22;;;9.12;100.00
15050;BME280;7622;42.724;23.250;2023-01-23T00:48:16;95089.16;;;9.14;100.00
15050;BME280;7622;42.724;23.250;2023-01-23T00:50:43;95094.31;;;9.14;100.00
15050;BME280;7622;42.724;23.250;2023-01-23T00:53:10;95098.13;;;9.10;100.00
15050;BME280;7622;42.724;23.250;2023-01-23T00:55:38;95108.03;;;9.05;100.00
15050;BME280;7622;42.724;23.250;2023-01-23T00:58:05;95094.00;;;9.07;100.00
15050;BME280;7622;42.724;23.250;2023-01-23T01:00:34;95097.78;;;9.03;100.00
15050;BME280;7622;42.724;23.250;2023-01-23T01:03:01;95061.59;;;8.81;100.00
15050;BME280;7622;42.724;23.250;2023-01-23T01:05:27;95093.34;;;8.94;100.00
15050;BME280;7622;42.724;23.250;2023-01-23T01:07:54;95092.19;;;8.87;100.00
15050;BME280;7622;42.724;23.250;2023-01-23T01:10:21;95071.22;;;8.90;100.00
15050;BME280;7622;42.724;23.250;2023-01-23T01:12:49;95078.53;;;8.85;100.00
15050;BME280;7622;42.724;23.250;2023-01-23T01:15:16;95072.56;;;8.74;100.00
15050;BME280;7622;42.724;23.250;2023-01-23T01:17:44;95081.50;;;8.81;100.00
15050;BME280;7622;42.724;23.250;2023-01-23T01:20:12;95072.13;;;8.68;100.00
15050;BME280;7622;42.724;23.250;2023-01-23T01:22:39;95102.34;;;8.79;100.00
15050;BME280;7622;42.724;23.250;2023-01-23T01:25:06;95108.22;;;8.81;100.00
15050;BME280;7622;42.724;23.250;2023-01-23T01:27:33;95114.78;;;8.85;100.00
15050;BME280;7622;42.724;23.250;2023-01-23T01:30:00;95115.16;;;8.92;100.00
15050;BME280;7622;42.724;23.250;2023-01-23T01:32:30;95121.41;;;8.89;100.00
15050;BME280;7622;42.724;23.250;2023-01-23T01:35:01;95117.50;;;8.95;100.00
15050;BME280;7622;42.724;23.250;2023-01-23T01:37:28;95078.94;;;8.69;100.00
15050;BME280;7622;42.724;23.250;2023-01-23T01:39:54;95103.47;;;8.97;100.00
15050;BME280;7622;42.724;23.250;2023-01-23T01:42:21;95108.66;;;8.97;100.00
15050;BME280;7622;42.724;23.250;2023-01-23T01:44:53;95106.06;;;8.97;100.00
15050;BME280;7622;42.724;23.250;2023-01-23T01:47:20;95104.19;;;8.88;100.00
15050;BME280;7622;42.724;23.250;2023-01-23T01:49:47;95102.09;;;8.82;100.00
15050;BME280;7622;42.724;23.250;2023-01-23T01:52:16;95108.88;;;8.94;100.00
15050;BME280;7622;42.724;23.250;2023-01-23T01:54:47;95110.53;;;8.95;100.00
15050;BME280;7622;42.724;23.250;2023-01-23T01:57:17;95104.53;;;8.95;100.00
15050;BME280;7622;42.724;23.250;2023-01-23T01:59:48;95096.88;;;8.93;100.00
15050;BME280;7622;42.724;23.250;2023-01-23T02:02:29;95102.06;;;8.93;100.00
15050;BME280;7622;42.724;23.250;2023-01-23T02:04:59;95112.69;;;8.90;100.00
15050;BME280;7622;42.724;23.250;2023-01-23T02:07:32;95100.41;;;8.92;100.00
15050;BME280;7622;42.724;23.250;2023-01-23T02:10:00;95104.19;;;8.88;100.00
15050;BME280;7622;42.724;23.250;2023-01-23T02:12:28;95107.72;;;8.87;100.00
15050;BME280;7622;42.724;23.250;2023-01-23T02:14:56;95092.44;;;8.84;100.00
15050;BME280;7622;42.724;23.250;2023-01-23T02:17:23;95104.91;;;8.79;100.00
15050;BME280;7622;42.724;23.250;2023-01-23T02:19:55;95101.41;;;8.80;100.00
15050;BME280;7622;42.724;23.250;2023-01-23T02:22:34;95113.19;;;8.84;100.00
15050;BME280;7622;42.724;23.250;2023-01-23T02:25:13;95099.50;;;8.82;100.00
15050;BME280;7622;42.724;23.250;2023-01-23T02:27:44;95095.50;;;8.78;100.00
15050;BME280;7622;42.724;23.250;2023-01-23T02:30:11;95096.22;;;8.80;100.00
15050;BME280;7622;42.724;23.250;2023-01-23T02:32:39;95103.63;;;8.85;100.00
15050;BME280;7622;42.724;23.250;2023-01-23T02:35:11;95104.25;;;8.77;100.00
15050;BME280;7622;42.724;23.250;2023-01-23T02:37:42;95117.88;;;8.79;100.00
15050;BME280;7622;42.724;23.250;2023-01-23T02:40:12;95111.25;;;8.86;100.00
15050;BME280;7622;42.724;23.250;2023-01-23T02:42:40;95096.59;;;8.76;100.00
15050;BME280;7622;42.724;23.250;2023-01-23T02:45:12;95105.66;;;8.70;100.00
15050;BME280;7622;42.724;23.250;2023-01-23T02:47:38;95110.94;;;8.80;100.00
15050;BME280;7622;42.724;23.250;2023-01-23T02:50:06;95109.19;;;8.69;100.00
15050;BME280;7622;42.724;23.250;2023-01-23T02:52:32;95108.16;;;8.60;100.00
15050;BME280;7622;42.724;23.250;2023-01-23T02:54:59;95117.47;;;8.63;100.00
15050;BME280;7622;42.724;23.250;2023-01-23T02:57:26;95126.88;;;8.64;100.00
15050;BME280;7622;42.724;23.250;2023-01-23T02:59:53;95117.94;;;8.46;100.00
15050;BME280;7622;42.724;23.250;2023-01-23T03:02:38;95115.81;;;8.51;100.00
15050;BME280;7622;42.724;23.250;2023-01-23T03:05:05;95111.47;;;8.40;100.00
15050;BME280;7622;42.724;23.250;2023-01-23T03:07:32;95111.25;;;8.43;100.00
15050;BME280;7622;42.724;23.250;2023-01-23T03:10:00;95122.41;;;8.33;100.00
15050;BME280;7622;42.724;23.250;2023-01-23T03:12:28;95131.13;;;8.32;100.00
15050;BME280;7622;42.724;23.250;2023-01-23T03:14:55;95119.59;;;8.36;100.00
15050;BME280;7622;42.724;23.250;2023-01-23T03:17:23;95116.75;;;8.39;100.00
15050;BME280;7622;42.724;23.250;2023-01-23T03:19:51;95114.88;;;8.41;100.00
15050;BME280;7622;42.724;23.250;2023-01-23T03:22:19;95118.88;;;8.45;100.00
15050;BME280;7622;42.724;23.250;2023-01-23T03:24:45;95125.47;;;8.49;100.00
15050;BME280;7622;42.724;23.250;2023-01-23T03:27:12;95131.13;;;8.43;100.00
15050;BME280;7622;42.724;23.250;2023-01-23T03:29:39;95089.72;;;8.32;100.00
15050;BME280;7622;42.724;23.250;2023-01-23T03:32:23;95134.19;;;8.37;100.00
15050;BME280;7622;42.724;23.250;2023-01-23T03:34:52;95132.78;;;8.33;100.00
15050;BME280;7622;42.724;23.250;2023-01-23T03:37:19;95120.53;;;8.35;100.00
15050;BME280;7622;42.724;23.250;2023-01-23T03:39:46;95121.47;;;8.34;100.00
15050;BME280;7622;42.724;23.250;2023-01-23T03:42:32;95079.34;;;8.09;100.00
15050;BME280;7622;42.724;23.250;2023-01-23T03:44:59;95129.94;;;8.47;100.00
15050;BME280;7622;42.724;23.250;2023-01-23T03:47:26;95127.72;;;8.42;100.00
15050;BME280;7622;42.724;23.250;2023-01-23T03:49:54;95126.41;;;8.48;100.00
15050;BME280;7622;42.724;23.250;2023-01-23T03:52:21;95137.47;;;8.50;100.00
15050;BME280;7622;42.724;23.250;2023-01-23T03:54:48;95134.91;;;8.50;100.00
15050;BME280;7622;42.724;23.250;2023-01-23T03:57:15;95136.50;;;8.51;100.00
15050;BME280;7622;42.724;23.250;2023-01-23T03:59:42;95130.41;;;8.41;100.00
15050;BME280;7622;42.724;23.250;2023-01-23T04:02:08;95132.06;;;8.42;100.00
15050;BME280;7622;42.724;23.250;2023-01-23T04:04:35;95129.94;;;8.47;100.00
15050;BME280;7622;42.724;23.250;2023-01-23T04:07:04;95137.25;;;8.42;100.00
15050;BME280;7622;42.724;23.250;2023-01-23T04:09:31;95135.13;;;8.36;100.00
15050;BME280;7622;42.724;23.250;2023-01-23T04:11:59;95139.81;;;8.30;100.00
15050;BME280;7622;42.724;23.250;2023-01-23T04:14:26;95138.78;;;8.33;100.00
15050;BME280;7622;42.724;23.250;2023-01-23T04:16:54;95111.69;;;8.04;100.00
15050;BME280;7622;42.724;23.250;2023-01-23T04:19:21;95144.50;;;8.25;100.00
15050;BME280;7622;42.724;23.250;2023-01-23T04:21:48;95128.03;;;8.26;100.00
15050;BME280;7622;42.724;23.250;2023-01-23T04:24:17;95119.44;;;8.04;100.00
15050;BME280;7622;42.724;23.250;2023-01-23T04:26:44;95123.78;;;8.25;100.00
15050;BME280;7622;42.724;23.250;2023-01-23T04:29:11;95134.97;;;8.15;100.00
15050;BME280;7622;42.724;23.250;2023-01-23T04:31:38;95136.63;;;8.16;100.00
15050;BME280;7622;42.724;23.250;2023-01-23T04:34:04;95131.44;;;8.05;100.00
15050;BME280;7622;42.724;23.250;2023-01-23T04:36:31;95143.06;;;8.10;100.00
15050;BME280;7622;42.724;23.250;2023-01-23T04:38:58;95151.31;;;8.26;100.00
15050;BME280;7622;42.724;23.250;2023-01-23T04:41:28;95145.69;;;8.21;100.00
15050;BME280;7622;42.724;23.250;2023-01-23T04:43:55;95153.78;;;8.17;100.00
15050;BME280;7622;42.724;23.250;2023-01-23T04:46:21;95169.44;;;8.15;100.00
15050;BME280;7622;42.724;23.250;2023-01-23T04:48:48;95075.09;;;7.64;100.00
15050;BME280;7622;42.724;23.250;2023-01-23T04:51:15;95184.47;;;8.10;100.00
15050;BME280;7622;42.724;23.250;2023-01-23T04:53:42;95158.59;;;7.88;100.00
15050;BME280;7622;42.724;23.250;2023-01-23T04:56:08;95167.28;;;8.09;100.00
15050;BME280;7622;42.724;23.250;2023-01-23T04:58:36;95163.56;;;8.13;100.00
15050;BME280;7622;42.724;23.250;2023-01-23T05:01:04;95166.59;;;8.18;100.00
15050;BME280;7622;42.724;23.250;2023-01-23T05:03:31;95158.84;;;8.07;100.00
15050;BME280;7622;42.724;23.250;2023-01-23T05:05:59;95165.88;;;8.05;100.00
15050;BME280;7622;42.724;23.250;2023-01-23T05:08:26;95170.81;;;7.97;100.00
15050;BME280;7622;42.724;23.250;2023-01-23T05:10:52;95170.59;;;8.11;100.00
15050;BME280;7622;42.724;23.250;2023-01-23T05:13:19;95176.03;;;8.08;100.00
15050;BME280;7622;42.724;23.250;2023-01-23T05:15:47;95171.69;;;8.09;100.00
15050;BME280;7622;42.724;23.250;2023-01-23T05:18:14;95182.13;;;8.18;100.00
15050;BME280;7622;42.724;23.250;2023-01-23T05:20:41;95196.47;;;8.11;100.00
15050;BME280;7622;42.724;23.250;2023-01-23T05:23:08;95194.81;;;8.10;100.00
15050;BME280;7622;42.724;23.250;2023-01-23T05:25:34;95210.34;;;8.10;100.00
15050;BME280;7622;42.724;23.250;2023-01-23T05:28:01;95205.78;;;8.14;100.00
15050;BME280;7622;42.724;23.250;2023-01-23T05:30:28;95211.78;;;8.14;100.00
15050;BME280;7622;42.724;23.250;2023-01-23T05:32:56;95210.25;;;8.23;100.00
15050;BME280;7622;42.724;23.250;2023-01-23T05:35:23;95215.06;;;8.16;100.00
15050;BME280;7622;42.724;23.250;2023-01-23T05:37:50;95218.72;;;8.25;100.00
15050;BME280;7622;42.724;23.250;2023-01-23T05:40:17;95216.75;;;8.28;100.00
15050;BME280;7622;42.724;23.250;2023-01-23T05:42:45;95233.16;;;8.16;100.00
15050;BME280;7622;42.724;23.250;2023-01-23T05:45:12;95220.22;;;8.16;100.00
15050;BME280;7622;42.724;23.250;2023-01-23T05:47:39;95216.03;;;8.15;100.00
15050;BME280;7622;42.724;23.250;2023-01-23T05:50:11;95215.81;;;8.29;100.00
15050;BME280;7622;42.724;23.250;2023-01-23T05:52:39;95203.09;;;8.15;100.00
15050;BME280;7622;42.724;23.250;2023-01-23T05:55:06;95211.16;;;8.11;100.00
15050;BME280;7622;42.724;23.250;2023-01-23T05:57:33;95193.25;;;7.97;100.00
15050;BME280;7622;42.724;23.250;2023-01-23T06:00:00;95213.44;;;8.15;100.00
15050;BME280;7622;42.724;23.250;2023-01-23T06:02:26;95212.47;;;8.16;100.00
15050;BME280;7622;42.724;23.250;2023-01-23T06:04:53;95204.22;;;8.00;100.00
15050;BME280;7622;42.724;23.250;2023-01-23T06:07:21;95227.22;;;8.27;100.00
15050;BME280;7622;42.724;23.250;2023-01-23T06:09:48;95230.38;;;8.19;100.00
15050;BME280;7622;42.724;23.250;2023-01-23T06:12:15;95230.16;;;8.22;100.00
15050;BME280;7622;42.724;23.250;2023-01-23T06:14:42;95238.13;;;8.19;100.00
15050;BME280;7622;42.724;23.250;2023-01-23T06:17:10;95234.13;;;8.26;100.00
15050;BME280;7622;42.724;23.250;2023-01-23T06:19:37;95242.38;;;8.20;100.00
15050;BME280;7622;42.724;23.250;2023-01-23T06:22:04;95230.16;;;8.22;100.00
15050;BME280;7622;42.724;23.250;2023-01-23T06:24:32;95227.31;;;8.25;100.00
15050;BME280;7622;42.724;23.250;2023-01-23T06:26:58;95238.16;;;8.30;100.00
15050;BME280;7622;42.724;23.250;2023-01-23T06:29:25;95239.31;;;8.26;100.00
15050;BME280;7622;42.724;23.250;2023-01-23T06:31:52;95248.25;;;8.22;100.00
15050;BME280;7622;42.724;23.250;2023-01-23T06:34:19;95241.44;;;8.21;100.00
15050;BME280;7622;42.724;23.250;2023-01-23T06:36:45;95241.53;;;8.20;100.00
15050;BME280;7622;42.724;23.250;2023-01-23T06:39:13;95247.06;;;8.15;100.00
15050;BME280;7622;42.724;23.250;2023-01-23T06:41:41;95197.97;;;7.91;100.00
15050;BME280;7622;42.724;23.250;2023-01-23T06:44:09;95234.13;;;8.26;100.00
15050;BME280;7622;42.724;23.250;2023-01-23T06:46:35;95251.81;;;7.98;100.00
15050;BME280;7622;42.724;23.250;2023-01-23T06:49:03;95229.34;;;7.87;100.00
15050;BME280;7622;42.724;23.250;2023-01-23T06:51:31;95183.09;;;7.36;100.00
15050;BME280;7622;42.724;23.250;2023-01-23T06:53:59;95271.47;;;8.00;100.00
15050;BME280;7622;42.724;23.250;2023-01-23T06:56:25;95249.06;;;7.77;100.00
15050;BME280;7622;42.724;23.250;2023-01-23T06:58:53;95260.31;;;7.76;100.00
15050;BME280;7622;42.724;23.250;2023-01-23T07:01:20;95286.91;;;7.78;100.00
15050;BME280;7622;42.724;23.250;2023-01-23T07:03:48;95278.81;;;7.82;100.00
15050;BME280;7622;42.724;23.250;2023-01-23T07:06:15;95302.81;;;7.84;100.00
15050;BME280;7622;42.724;23.250;2023-01-23T07:08:42;95325.50;;;7.81;100.00
15050;BME280;7622;42.724;23.250;2023-01-23T07:11:09;95305.75;;;7.80;100.00
15050;BME280;7622;42.724;23.250;2023-01-23T07:13:36;95317.94;;;7.78;100.00
15050;BME280;7622;42.724;23.250;2023-01-23T07:16:05;95304.00;;;7.68;100.00
15050;BME280;7622;42.724;23.250;2023-01-23T07:18:32;95310.13;;;7.67;100.00
15050;BME280;7622;42.724;23.250;2023-01-23T07:20:59;95305.63;;;7.58;100.00
15050;BME280;7622;42.724;23.250;2023-01-23T07:23:26;95313.94;;;7.74;100.00
15050;BME280;7622;42.724;23.250;2023-01-23T07:25:57;95309.91;;;7.70;100.00
15050;BME280;7622;42.724;23.250;2023-01-23T07:28:24;95311.22;;;7.51;100.00
15050;BME280;7622;42.724;23.250;2023-01-23T07:30:51;95348.28;;;7.39;100.00
15050;BME280;7622;42.724;23.250;2023-01-23T07:33:19;95328.44;;;7.27;100.00
15050;BME280;7622;42.724;23.250;2023-01-23T07:35:46;95310.75;;;7.34;100.00
15050;BME280;7622;42.724;23.250;2023-01-23T07:38:13;95330.41;;;7.36;100.00
15050;BME280;7622;42.724;23.250;2023-01-23T07:40:40;95323.50;;;7.24;100.00
15050;BME280;7622;42.724;23.250;2023-01-23T07:43:08;95321.03;;;7.23;100.00
15050;BME280;7622;42.724;23.250;2023-01-23T07:45:36;95329.16;;;7.29;100.00
15050;BME280;7622;42.724;23.250;2023-01-23T07:48:03;95340.28;;;7.19;100.00
15050;BME280;7622;42.724;23.250;2023-01-23T07:50:32;95315.34;;;7.18;100.00
15050;BME280;7622;42.724;23.250;2023-01-23T07:52:59;95336.56;;;7.10;100.00
15050;BME280;7622;42.724;23.250;2023-01-23T07:55:26;95323.72;;;7.21;100.00
15050;BME280;7622;42.724;23.250;2023-01-23T07:57:53;95335.69;;;7.22;100.00
15050;BME280;7622;42.724;23.250;2023-01-23T08:00:21;95333.22;;;7.21;100.00
15050;BME280;7622;42.724;23.250;2023-01-23T08:02:48;95330.53;;;7.22;100.00
15050;BME280;7622;42.724;23.250;2023-01-23T08:05:15;95339.31;;;7.20;100.00
15050;BME280;7622;42.724;23.250;2023-01-23T08:07:43;95334.69;;;7.12;100.00
15050;BME280;7622;42.724;23.250;2023-01-23T08:10:10;95332.38;;;7.20;100.00
15050;BME280;7622;42.724;23.250;2023-01-23T08:12:37;95343.38;;;7.11;100.00
15050;BME280;7622;42.724;23.250;2023-01-23T08:15:05;95337.47;;;7.09;100.00
15050;BME280;7622;42.724;23.250;2023-01-23T08:17:32;95340.25;;;7.06;100.00
15050;BME280;7622;42.724;23.250;2023-01-23T08:19:59;95347.63;;;7.12;100.00
15050;BME280;7622;42.724;23.250;2023-01-23T08:22:25;95353.84;;;7.33;100.00
15050;BME280;7622;42.724;23.250;2023-01-23T08:24:53;95359.84;;;7.34;100.00
15050;BME280;7622;42.724;23.250;2023-01-23T08:27:20;95379.91;;;7.30;100.00
15050;BME280;7622;42.724;23.250;2023-01-23T08:29:47;95370.63;;;7.28;100.00
15050;BME280;7622;42.724;23.250;2023-01-23T08:32:14;95363.06;;;7.37;100.00
15050;BME280;7622;42.724;23.250;2023-01-23T08:34:40;95365.16;;;7.32;100.00
15050;BME280;7622;42.724;23.250;2023-01-23T08:37:07;95363.19;;;7.23;100.00
15050;BME280;7622;42.724;23.250;2023-01-23T08:39:34;95352.63;;;7.26;100.00
15050;BME280;7622;42.724;23.250;2023-01-23T08:42:02;95335.50;;;7.25;100.00
15050;BME280;7622;42.724;23.250;2023-01-23T08:44:29;95339.38;;;7.43;100.00
15050;BME280;7622;42.724;23.250;2023-01-23T08:46:59;95345.41;;;7.31;100.00
15050;BME280;7622;42.724;23.250;2023-01-23T08:49:26;95358.31;;;7.31;100.00
15050;BME280;7622;42.724;23.250;2023-01-23T08:51:53;95371.03;;;7.22;100.00
15050;BME280;7622;42.724;23.250;2023-01-23T08:54:21;95358.41;;;7.30;100.00
15050;BME280;7622;42.724;23.250;2023-01-23T08:56:47;95403.69;;;7.23;100.00
15050;BME280;7622;42.724;23.250;2023-01-23T08:59:16;95355.94;;;7.28;100.00
15050;BME280;7622;42.724;23.250;2023-01-23T09:01:42;95365.66;;;7.37;100.00
15050;BME280;7622;42.724;23.250;2023-01-23T09:04:10;95356.44;;;7.33;100.00
15050;BME280;7622;42.724;23.250;2023-01-23T09:06:37;95384.25;;;7.30;100.00
15050;BME280;7622;42.724;23.250;2023-01-23T09:09:04;95352.84;;;7.23;100.00
15050;BME280;7622;42.724;23.250;2023-01-23T09:11:30;95361.41;;;7.36;100.00
15050;BME280;7622;42.724;23.250;2023-01-23T09:13:57;95362.81;;;7.40;100.00
15050;BME280;7622;42.724;23.250;2023-01-23T09:16:25;95342.59;;;7.34;100.00
15050;BME280;7622;42.724;23.250;2023-01-23T09:18:53;95353.06;;;7.33;100.00
15050;BME280;7622;42.724;23.250;2023-01-23T09:21:20;95353.81;;;7.59;100.00
15050;BME280;7622;42.724;23.250;2023-01-23T09:23:47;95369.16;;;7.73;100.00
15050;BME280;7622;42.724;23.250;2023-01-23T09:26:14;95364.94;;;7.72;100.00
15050;BME280;7622;42.724;23.250;2023-01-23T09:28:41;95372.84;;;7.58;100.00
15050;BME280;7622;42.724;23.250;2023-01-23T09:31:10;95363.28;;;7.71;100.00
15050;BME280;7622;42.724;23.250;2023-01-23T09:33:38;95372.59;;;7.61;100.00
15050;BME280;7622;42.724;23.250;2023-01-23T09:36:07;95345.81;;;7.62;100.00
15050;BME280;7622;42.724;23.250;2023-01-23T09:38:34;95342.63;;;7.58;100.00
15050;BME280;7622;42.724;23.250;2023-01-23T09:41:07;95358.88;;;7.47;100.00
15050;BME280;7622;42.724;23.250;2023-01-23T09:43:39;95368.91;;;7.52;100.00
15050;BME280;7622;42.724;23.250;2023-01-23T09:46:14;95352.44;;;7.66;100.00
15050;BME280;7622;42.724;23.250;2023-01-23T09:48:45;95375.09;;;7.62;100.00
15050;BME280;7622;42.724;23.250;2023-01-23T09:51:19;95371.81;;;7.60;100.00
15050;BME280;7622;42.724;23.250;2023-01-23T09:53:47;95370.16;;;7.59;100.00
15050;BME280;7622;42.724;23.250;2023-01-23T09:56:27;95372.72;;;7.59;100.00
15050;BME280;7622;42.724;23.250;2023-01-23T09:59:09;95370.00;;;7.61;100.00
15050;BME280;7622;42.724;23.250;2023-01-23T10:01:37;95408.00;;;7.47;100.00
15050;BME280;7622;42.724;23.250;2023-01-23T10:04:05;95376.38;;;7.44;100.00
15050;BME280;7622;42.724;23.250;2023-01-23T10:06:52;95376.97;;;7.47;100.00
15050;BME280;7622;42.724;23.250;2023-01-23T10:12:14;95340.47;;;7.16;100.00
15050;BME280;7622;42.724;23.250;2023-01-23T10:15:06;95365.41;;;7.40;100.00
15050;BME280;7622;42.724;23.250;2023-01-23T10:17:44;95379.69;;;7.33;100.00
15050;BME280;7622;42.724;23.250;2023-01-23T10:20:26;95383.63;;;7.39;100.00
15050;BME280;7622;42.724;23.250;2023-01-23T10:23:06;95378.47;;;7.39;100.00
15050;BME280;7622;42.724;23.250;2023-01-23T10:25:39;95380.22;;;7.38;100.00
15050;BME280;7622;42.724;23.250;2023-01-23T10:28:28;95368.34;;;7.23;100.00
15050;BME280;7622;42.724;23.250;2023-01-23T10:31:01;95365.28;;;7.18;100.00
15050;BME280;7622;42.724;23.250;2023-01-23T10:33:36;95372.91;;;7.32;100.00
15050;BME280;7622;42.724;23.250;2023-01-23T10:36:16;95371.44;;;7.28;100.00
15050;BME280;7622;42.724;23.250;2023-01-23T10:38:51;95370.94;;;7.23;100.00
15050;BME280;7622;42.724;23.250;2023-01-23T10:41:20;95372.16;;;7.30;100.00
15050;BME280;7622;42.724;23.250;2023-01-23T10:43:49;95385.91;;;7.31;100.00
15050;BME280;7622;42.724;23.250;2023-01-23T10:46:18;95366.28;;;7.28;100.00
15050;BME280;7622;42.724;23.250;2023-01-23T10:48:46;95330.53;;;7.22;100.00
15050;BME280;7622;42.724;23.250;2023-01-23T10:51:42;95359.88;;;7.21;100.00
15050;BME280;7622;42.724;23.250;2023-01-23T10:54:13;95355.38;;;7.12;100.00
15050;BME280;7622;42.724;23.250;2023-01-23T10:56:49;95365.47;;;7.15;100.00
15050;BME280;7622;42.724;23.250;2023-01-23T10:59:24;95359.28;;;7.18;100.00
15050;BME280;7622;42.724;23.250;2023-01-23T11:02:00;95365.47;;;7.15;100.00
15050;BME280;7622;42.724;23.250;2023-01-23T11:04:29;95360.94;;;7.19;100.00
15050;BME280;7622;42.724;23.250;2023-01-23T11:07:06;95361.19;;;7.27;100.00
15050;BME280;7622;42.724;23.250;2023-01-23T11:09:46;95357.28;;;7.21;100.00
15050;BME280;7622;42.724;23.250;2023-01-23T11:12:18;95367.22;;;7.15;100.00
15050;BME280;7622;42.724;23.250;2023-01-23T11:14:46;95362.97;;;7.26;100.00
15050;BME280;7622;42.724;23.250;2023-01-23T11:17:16;95353.47;;;7.14;100.00
15050;BME280;7622;42.724;23.250;2023-01-23T11:19:45;95352.91;;;7.34;100.00
15050;BME280;7622;42.724;23.250;2023-01-23T11:22:36;95354.50;;;7.24;100.00
15050;BME280;7622;42.724;23.250;2023-01-23T11:25:26;95367.84;;;7.18;100.00
15050;BME280;7622;42.724;23.250;2023-01-23T11:27:57;95357.00;;;7.13;100.00
15050;BME280;7622;42.724;23.250;2023-01-23T11:30:32;95374.78;;;7.05;100.00
15050;BME280;7622;42.724;23.250;2023-01-23T11:33:09;95373.34;;;7.01;100.00
15050;BME280;7622;42.724;23.250;2023-01-23T11:35:54;95357.22;;;7.10;100.00
15050;BME280;7622;42.724;23.250;2023-01-23T11:38:28;95364.03;;;7.11;100.00
15050;BME280;7622;42.724;23.250;2023-01-23T11:40:57;95360.69;;;7.22;100.00
15050;BME280;7622;42.724;23.250;2023-01-23T11:43:24;95356.56;;;7.19;100.00
15050;BME280;7622;42.724;23.250;2023-01-23T11:46:04;95353.28;;;7.17;100.00
15050;BME280;7622;42.724;23.250;2023-01-23T11:48:48;95348.75;;;7.08;100.00
15050;BME280;7622;42.724;23.250;2023-01-23T11:51:23;95361.16;;;7.03;100.00
15050;BME280;7622;42.724;23.250;2023-01-23T11:54:01;95351.81;;;7.13;100.00
15050;BME280;7622;42.724;23.250;2023-01-23T11:56:48;95345.75;;;7.01;100.00
15050;BME280;7622;42.724;23.250;2023-01-23T11:59:41;95325.09;;;7.01;100.00
15050;BME280;7622;42.724;23.250;2023-01-23T12:05:41;95352.66;;;7.01;100.00
15050;BME280;7622;42.724;23.250;2023-01-23T12:08:20;95331.19;;;6.88;100.00
15050;BME280;7622;42.724;23.250;2023-01-23T12:11:00;95332.84;;;6.89;100.00
15050;BME280;7622;42.724;23.250;2023-01-23T12:13:44;95322.94;;;6.95;100.00
15050;BME280;7622;42.724;23.250;2023-01-23T12:16:21;95349.50;;;6.97;100.00
15050;BME280;7622;42.724;23.250;2023-01-23T12:19:04;95344.19;;;6.99;100.00
15050;BME280;7622;42.724;23.250;2023-01-23T12:21:37;95310.56;;;6.75;100.00
15050;BME280;7622;42.724;23.250;2023-01-23T12:24:13;95347.94;;;6.95;100.00
15050;BME280;7622;42.724;23.250;2023-01-23T12:26:56;95331.19;;;6.88;100.00
15050;BME280;7622;42.724;23.250;2023-01-23T12:29:38;95338.19;;;6.98;100.00
15050;BME280;7622;42.724;23.250;2023-01-23T12:32:30;95349.91;;;7.04;100.00
15050;BME280;7622;42.724;23.250;2023-01-23T12:35:11;95365.09;;;6.83;100.00
15050;BME280;7622;42.724;23.250;2023-01-23T12:38:07;95333.88;;;6.86;100.00
15050;BME280;7622;42.724;23.250;2023-01-23T12:40:39;95308.59;;;6.66;100.00
15050;BME280;7622;42.724;23.250;2023-01-23T12:43:13;95335.44;;;6.89;100.00
15050;BME280;7622;42.724;23.250;2023-01-23T12:45:45;95357.03;;;6.88;100.00
15050;BME280;7622;42.724;23.250;2023-01-23T12:48:20;95344.09;;;6.88;100.00
15050;BME280;7622;42.724;23.250;2023-01-23T12:50:50;95347.31;;;6.79;100.00
15050;BME280;7622;42.724;23.250;2023-01-23T12:53:20;95382.66;;;6.91;100.00
15050;BME280;7622;42.724;23.250;2023-01-23T12:55:57;95315.00;;;6.60;100.00
15050;BME280;7622;42.724;23.250;2023-01-23T12:58:28;95372.28;;;6.78;100.00
15050;BME280;7622;42.724;23.250;2023-01-23T13:01:14;95296.31;;;6.44;100.00
15050;BME280;7622;42.724;23.250;2023-01-23T13:03:57;95355.78;;;6.81;100.00
15050;BME280;7622;42.724;23.250;2023-01-23T13:06:49;95349.59;;;6.96;100.00
15050;BME280;7622;42.724;23.250;2023-01-23T13:09:26;95380.78;;;6.93;100.00
15050;BME280;7622;42.724;23.250;2023-01-23T13:12:00;95347.09;;;6.94;100.00
15050;BME280;7622;42.724;23.250;2023-01-23T13:14:39;95357.22;;;6.85;100.00
15050;BME280;7622;42.724;23.250;2023-01-23T13:17:30;95366.75;;;6.97;100.00
15050;BME280;7622;42.724;23.250;2023-01-23T13:20:22;95367.78;;;6.82;100.00
15050;BME280;7622;42.724;23.250;2023-01-23T13:23:26;95331.41;;;6.59;100.00